Time;durP1;ratioP1;P1;durP2;ratioP2;P2;SDS_P1;SDS_P2;PMS_P1;PMS_P2;Temp;Humidity;BMP_temperature;BMP_pressure;BME280_temperature;BME280_humidity;BME280_pressure;Samples;Min_cycle;Max_cycle;Signal;HPM_P1;HPM_P2
2024/03/19 00:00:34;;;;;;;0.63;0.63;;;;;;;4.56;100.00;100385.38;4998548;28;20042;-75
2024/03/19 00:02:59;;;;;;;0.75;0.75;;;;;;;4.70;100.00;100385.69;5009539;28;20418;-76
2024/03/19 00:05:25;;;;;;;0.30;0.30;;;;;;;4.73;100.00;100371.88;5007063;28;20062;-77
2024/03/19 00:07:52;;;;;;;0.77;0.77;;;;;;;4.83;100.00;100382.53;5007900;28;20061;-76
2024/03/19 00:10:18;;;;;;;5.57;5.28;;;;;;;4.49;100.00;100365.28;5000491;28;20034;-77
2024/03/19 00:12:44;;;;;;;0.50;0.50;;;;;;;4.51;100.00;100341.94;5025015;28;20085;-76
2024/03/19 00:15:10;;;;;;;0.35;0.35;;;;;;;4.63;100.00;100363.00;5016138;28;20042;-76
2024/03/19 00:17:36;;;;;;;0.35;0.35;;;;;;;4.73;100.00;100370.19;5026243;28;20041;-76
2024/03/19 00:20:05;;;;;;;2.60;2.47;;;;;;;4.25;100.00;100349.97;5025050;28;20469;-76
2024/03/19 00:22:34;;;;;;;2.15;2.05;;;;;;;4.44;100.00;100359.09;5009676;28;20037;-76
2024/03/19 00:25:00;;;;;;;0.43;0.43;;;;;;;4.39;100.00;100358.13;5009305;28;20049;-76
2024/03/19 00:27:26;;;;;;;0.60;0.50;;;;;;;4.45;100.00;100347.88;5008633;28;20117;-77
2024/03/19 00:29:52;;;;;;;3.47;3.33;;;;;;;4.42;100.00;100361.69;5011582;28;20285;-76
2024/03/19 00:32:18;;;;;;;0.50;0.50;;;;;;;4.41;100.00;100349.50;5010010;28;20639;-77
2024/03/19 00:34:43;;;;;;;0.65;0.65;;;;;;;4.21;100.00;100306.59;5013436;28;20080;-77
2024/03/19 00:37:09;;;;;;;1.42;1.33;;;;;;;4.11;100.00;100297.72;5011857;28;20042;-78
2024/03/19 00:39:35;;;;;;;0.20;0.20;;;;;;;4.42;100.00;100345.19;5012230;28;20045;-76
2024/03/19 00:42:05;;;;;;;1.00;1.00;;;;;;;4.39;100.00;100340.81;5012918;28;20050;-77
2024/03/19 00:44:30;;;;;;;0.60;0.60;;;;;;;4.62;100.00;100346.53;5026002;28;20041;-75
2024/03/19 00:46:57;;;;;;;0.95;0.95;;;;;;;4.19;100.00;100313.47;5006851;28;20057;-75
2024/03/19 00:49:24;;;;;;;1.65;1.55;;;;;;;4.28;100.00;100305.91;5011388;28;20041;-78
2024/03/19 00:51:50;;;;;;;0.30;0.30;;;;;;;4.19;100.00;100309.19;5008095;28;20053;-76
2024/03/19 00:54:16;;;;;;;1.48;1.42;;;;;;;4.58;100.00;100344.72;5010717;28;20057;-78
2024/03/19 00:56:42;;;;;;;0.40;0.40;;;;;;;4.42;100.00;100327.91;5015404;28;20050;-74
2024/03/19 00:59:07;;;;;;;1.65;1.60;;;;;;;4.52;100.00;100342.00;5002726;28;23152;-75
2024/03/19 01:01:35;;;;;;;0.50;0.50;;;;;;;4.48;100.00;100336.69;5006546;28;20418;-76
2024/03/19 01:04:04;;;;;;;0.30;0.30;;;;;;;4.63;100.00;100334.41;5007614;28;20037;-78
2024/03/19 01:06:31;;;;;;;2.38;2.28;;;;;;;4.27;100.00;100292.91;5009108;28;20057;-77
2024/03/19 01:08:58;;;;;;;1.05;1.05;;;;;;;4.75;100.00;100332.13;5012208;28;20050;-75
2024/03/19 01:11:24;;;;;;;0.38;0.38;;;;;;;4.56;100.00;100333.41;5007235;28;20049;-76
2024/03/19 01:13:49;;;;;;;2.75;2.65;;;;;;;4.32;100.00;100309.47;4999702;28;20132;-77
2024/03/19 01:16:15;;;;;;;0.52;0.52;;;;;;;4.20;100.00;100291.88;5011297;28;20037;-77
2024/03/19 01:18:41;;;;;;;1.50;1.40;;;;;;;4.29;100.00;100304.22;5008297;28;20898;-74
2024/03/19 01:21:06;;;;;;;0.40;0.40;;;;;;;4.65;100.00;100330.13;5012754;28;20112;-75
2024/03/19 01:23:32;;;;;;;0.50;0.50;;;;;;;4.35;100.00;100288.75;5018335;28;20080;-76
2024/03/19 01:25:57;;;;;;;0.60;0.60;;;;;;;4.51;100.00;100316.84;5003080;28;20056;-77
2024/03/19 01:28:23;;;;;;;13.52;12.88;;;;;;;4.55;100.00;100287.47;5010112;28;20771;-76
2024/03/19 01:30:49;;;;;;;0.30;0.30;;;;;;;4.18;100.00;100275.38;5004637;28;20145;-74
2024/03/19 01:33:14;;;;;;;0.47;0.47;;;;;;;4.37;100.00;100310.44;5009258;28;20133;-77
2024/03/19 01:35:40;;;;;;;0.35;0.35;;;;;;;4.23;100.00;100261.63;5009948;28;20049;-78
2024/03/19 01:38:06;;;;;;;1.15;1.13;;;;;;;4.32;100.00;100279.16;5010416;28;20736;-78
2024/03/19 01:40:32;;;;;;;0.32;0.32;;;;;;;4.38;100.00;100296.63;5008760;28;20084;-77
2024/03/19 01:42:58;;;;;;;0.30;0.30;;;;;;;4.44;100.00;100291.56;5005630;28;20524;-77
2024/03/19 01:45:24;;;;;;;7.95;1.95;;;;;;;4.54;100.00;100282.25;5023143;28;20046;-76
2024/03/19 01:47:51;;;;;;;0.68;0.68;;;;;;;4.16;100.00;100246.75;5008285;28;20050;-77
2024/03/19 01:50:17;;;;;;;0.30;0.30;;;;;;;4.58;100.00;100264.16;5008019;28;20120;-77
2024/03/19 01:52:50;;;;;;;0.40;0.40;;;;;;;4.62;100.00;100265.13;5011858;28;20049;-77
2024/03/19 01:55:17;;;;;;;1.17;1.17;;;;;;;4.62;100.00;100247.78;5026044;28;20060;-76
2024/03/19 01:57:44;;;;;;;0.60;0.40;;;;;;;4.39;100.00;100231.69;5020664;28;20076;-76
2024/03/19 02:00:12;;;;;;;0.52;0.52;;;;;;;4.40;100.00;100272.44;5015541;28;20053;-77
2024/03/19 02:02:38;;;;;;;4.65;4.30;;;;;;;4.54;100.00;100243.25;5024875;28;20045;-78
2024/03/19 02:05:05;;;;;;;0.47;0.47;;;;;;;4.48;100.00;100269.13;5028559;28;20508;-79
2024/03/19 02:07:31;;;;;;;0.85;0.82;;;;;;;4.35;100.00;100234.19;5029290;28;20022;-76
2024/03/19 02:09:57;;;;;;;1.00;0.95;;;;;;;4.36;100.00;100244.63;5023547;28;20042;-75
2024/03/19 02:12:23;;;;;;;0.38;0.38;;;;;;;4.44;100.00;100242.19;5028053;28;20056;-77
2024/03/19 02:14:50;;;;;;;3.45;3.30;;;;;;;4.42;100.00;100282.84;5029216;28;20071;-79
2024/03/19 02:17:17;;;;;;;1.20;1.20;;;;;;;4.25;100.00;100277.28;5026339;28;20065;-77
2024/03/19 02:19:43;;;;;;;3.85;1.95;;;;;;;4.41;100.00;100266.38;5027367;28;20034;-75
2024/03/19 02:22:10;;;;;;;0.30;0.30;;;;;;;4.56;100.00;100273.63;5026594;28;20068;-76
2024/03/19 02:24:38;;;;;;;0.30;0.30;;;;;;;4.38;100.00;100218.69;5027912;28;20048;-76
2024/03/19 02:27:06;;;;;;;0.30;0.30;;;;;;;4.38;100.00;100236.88;5018818;28;20061;-76
2024/03/19 02:29:32;;;;;;;0.30;0.30;;;;;;;4.23;100.00;100232.19;5002905;28;20089;-75
2024/03/19 02:31:58;;;;;;;0.30;0.30;;;;;;;4.08;100.00;100232.75;5011708;28;20709;-76
2024/03/19 02:34:23;;;;;;;0.30;0.30;;;;;;;4.39;100.00;100270.66;5023610;28;20107;-75
2024/03/19 02:36:49;;;;;;;0.30;0.30;;;;;;;4.26;100.00;100262.56;5024408;28;20041;-74
2024/03/19 02:39:15;;;;;;;1.45;1.40;;;;;;;4.34;100.00;100224.66;5028119;28;20049;-75
2024/03/19 02:41:41;;;;;;;0.30;0.30;;;;;;;4.20;100.00;100235.59;5025972;28;20045;-77
2024/03/19 02:44:07;;;;;;;0.55;0.55;;;;;;;4.40;100.00;100232.56;5025560;28;20111;-77
2024/03/19 02:46:33;;;;;;;0.38;0.38;;;;;;;4.53;100.00;100264.91;5026424;28;20041;-77
2024/03/19 02:48:58;;;;;;;0.40;0.40;;;;;;;4.35;100.00;100261.03;5022096;28;20397;-75
2024/03/19 02:51:25;;;;;;;0.25;0.25;;;;;;;4.28;100.00;100268.66;5029330;28;20053;-77
2024/03/19 02:53:50;;;;;;;0.47;0.47;;;;;;;4.11;100.00;100239.72;5020617;28;20041;-76
2024/03/19 02:56:16;;;;;;;0.20;0.20;;;;;;;4.20;100.00;100240.81;5024839;28;20069;-75
2024/03/19 02:58:42;;;;;;;0.55;0.50;;;;;;;4.22;100.00;100240.84;5026265;28;20067;-77
2024/03/19 03:01:08;;;;;;;0.50;0.50;;;;;;;4.29;100.00;100266.13;5021272;28;20171;-78
2024/03/19 03:03:34;;;;;;;0.50;0.50;;;;;;;4.12;100.00;100255.34;5018150;28;20049;-75
2024/03/19 03:06:00;;;;;;;0.30;0.30;;;;;;;3.63;100.00;100238.59;5025130;28;20048;-77
2024/03/19 03:08:26;;;;;;;0.38;0.38;;;;;;;4.00;100.00;100232.56;5037613;28;20072;-75
2024/03/19 03:10:52;;;;;;;0.30;0.30;;;;;;;4.04;100.00;100268.97;5022881;28;20021;-76
2024/03/19 03:13:18;;;;;;;6.03;5.53;;;;;;;4.01;100.00;100274.97;5002640;28;20540;-76
2024/03/19 03:15:44;;;;;;;0.75;0.75;;;;;;;4.03;100.00;100265.50;5008999;28;20041;-74
2024/03/19 03:18:10;;;;;;;0.95;0.95;;;;;;;4.17;100.00;100268.44;5005409;28;20143;-74
2024/03/19 03:20:36;;;;;;;0.38;0.38;;;;;;;3.97;100.00;100274.00;5003568;28;20050;-79
2024/03/19 03:23:03;;;;;;;1.50;1.40;;;;;;;3.81;100.00;100288.31;5006836;28;20044;-76
2024/03/19 03:25:29;;;;;;;0.22;0.22;;;;;;;3.93;100.00;100274.81;4998746;28;20088;-77
2024/03/19 03:27:56;;;;;;;12.68;10.65;;;;;;;3.48;100.00;100235.59;5003899;28;20433;-77
2024/03/19 03:30:22;;;;;;;1.50;1.48;;;;;;;4.18;100.00;100289.22;5002957;28;20077;-75
2024/03/19 03:32:48;;;;;;;1.95;1.85;;;;;;;3.40;100.00;100282.06;5008845;28;20092;-78
2024/03/19 03:35:14;;;;;;;0.30;0.30;;;;;;;3.68;100.00;100275.91;5019791;28;20482;-76
2024/03/19 03:37:41;;;;;;;0.20;0.20;;;;;;;3.74;100.00;100289.00;5006543;28;20029;-77
2024/03/19 03:40:29;;;;;;;0.32;0.32;;;;;;;4.01;100.00;100282.78;5009907;28;20064;-77
2024/03/19 03:42:53;;;;;;;0.20;0.20;;;;;;;3.75;100.00;100287.31;5005309;28;20649;-77
2024/03/19 03:45:20;;;;;;;0.30;0.30;;;;;;;3.97;100.00;100278.34;5011267;28;20056;-78
2024/03/19 03:47:46;;;;;;;0.40;0.40;;;;;;;4.14;100.00;100294.31;5013358;28;20080;-77
2024/03/19 03:50:13;;;;;;;0.22;0.22;;;;;;;4.20;100.00;100286.69;5017188;28;20073;-76
2024/03/19 03:52:39;;;;;;;0.32;0.32;;;;;;;3.85;100.00;100255.56;5012765;28;20511;-77
2024/03/19 03:55:09;;;;;;;0.40;0.40;;;;;;;4.26;100.00;100293.72;5009700;28;20419;-78
2024/03/19 03:57:36;;;;;;;0.40;0.40;;;;;;;3.80;100.00;100290.91;5014373;28;20042;-76
2024/03/19 04:00:11;;;;;;;0.30;0.30;;;;;;;3.28;100.00;100284.34;5014938;28;20045;-78
2024/03/19 04:02:42;;;;;;;0.50;0.50;;;;;;;3.49;100.00;100313.44;5021077;28;20061;-76
2024/03/19 04:05:08;;;;;;;0.30;0.30;;;;;;;3.38;100.00;100315.75;5008935;28;20038;-76
2024/03/19 04:07:41;;;;;;;0.28;0.28;;;;;;;3.48;100.00;100313.41;5015120;28;20771;-78
2024/03/19 04:10:11;;;;;;;0.27;0.27;;;;;;;3.69;100.00;100307.91;5029814;28;20448;-77
2024/03/19 04:12:37;;;;;;;0.30;0.30;;;;;;;3.68;100.00;100311.34;5007232;28;20051;-77
2024/03/19 04:15:07;;;;;;;0.50;0.40;;;;;;;3.67;100.00;100301.78;5007896;28;20137;-78
2024/03/19 04:17:34;;;;;;;0.30;0.30;;;;;;;3.73;100.00;100313.22;5013390;28;20033;-78
2024/03/19 04:20:00;;;;;;;0.35;0.30;;;;;;;3.89;100.00;100317.09;5028993;28;20132;-75
2024/03/19 04:22:26;;;;;;;0.30;0.30;;;;;;;3.34;100.00;100295.75;5024899;28;20557;-76
2024/03/19 04:24:52;;;;;;;0.32;0.32;;;;;;;3.61;100.00;100319.81;5032822;28;20045;-74
2024/03/19 04:27:18;;;;;;;10.82;10.25;;;;;;;3.14;100.00;100279.66;5025260;28;20100;-75
2024/03/19 04:29:47;;;;;;;0.40;0.40;;;;;;;3.64;100.00;100322.47;5021210;28;20041;-78
2024/03/19 04:32:13;;;;;;;0.43;0.43;;;;;;;3.37;100.00;100271.59;5045954;28;20147;-78
2024/03/19 04:34:38;;;;;;;0.30;0.30;;;;;;;3.56;100.00;100306.72;5024864;28;20060;-77
2024/03/19 04:37:04;;;;;;;0.30;0.30;;;;;;;3.73;100.00;100317.53;5022528;28;20045;-75
2024/03/19 04:39:30;;;;;;;0.30;0.30;;;;;;;3.15;100.00;100285.72;5025480;28;20056;-78
2024/03/19 04:41:55;;;;;;;0.25;0.25;;;;;;;3.30;100.00;100326.72;5029827;28;20057;-77
2024/03/19 04:44:22;;;;;;;0.30;0.30;;;;;;;3.15;100.00;100299.53;5023901;28;20613;-75
2024/03/19 04:46:48;;;;;;;1.10;1.10;;;;;;;3.58;100.00;100331.84;5023529;28;20082;-75
2024/03/19 04:49:15;;;;;;;1.33;1.25;;;;;;;3.55;100.00;100339.53;5022697;28;20460;-78
2024/03/19 04:51:41;;;;;;;0.30;0.30;;;;;;;3.60;100.00;100350.03;5027329;28;20053;-78
2024/03/19 04:54:06;;;;;;;0.52;0.50;;;;;;;3.22;100.00;100344.66;5017942;28;20052;-77
2024/03/19 04:56:32;;;;;;;0.50;0.50;;;;;;;3.08;100.00;100351.19;5004183;28;20073;-76
2024/03/19 04:58:58;;;;;;;1.88;1.77;;;;;;;3.10;100.00;100310.63;5019049;28;20042;-78
2024/03/19 05:01:23;;;;;;;0.30;0.30;;;;;;;2.89;100.00;100321.25;5008159;28;20053;-80
2024/03/19 05:03:51;;;;;;;0.40;0.40;;;;;;;3.18;100.00;100335.03;5007840;28;20062;-77
2024/03/19 05:06:16;;;;;;;0.30;0.30;;;;;;;3.23;100.00;100356.81;5009325;28;20097;-76
2024/03/19 05:08:43;;;;;;;0.40;0.40;;;;;;;2.91;100.00;100299.72;5004839;28;20092;-76
2024/03/19 05:11:09;;;;;;;0.30;0.30;;;;;;;3.30;100.00;100363.03;4998053;28;20050;-77
2024/03/19 05:13:35;;;;;;;0.40;0.40;;;;;;;2.51;100.00;100339.97;5009562;28;20514;-78
2024/03/19 05:16:01;;;;;;;0.45;0.45;;;;;;;2.61;100.00;100343.72;5009164;28;20127;-77
2024/03/19 05:18:27;;;;;;;5.85;5.00;;;;;;;2.50;100.00;100301.94;5008567;28;20136;-78
2024/03/19 05:20:52;;;;;;;1.17;1.17;;;;;;;2.86;100.00;100375.59;5008194;28;20418;-76
2024/03/19 05:23:18;;;;;;;0.35;0.35;;;;;;;2.57;100.00;100338.41;5007815;28;20132;-78
2024/03/19 05:25:44;;;;;;;0.30;0.30;;;;;;;2.95;100.00;100370.69;5008815;28;20129;-79
2024/03/19 05:28:11;;;;;;;0.40;0.40;;;;;;;2.69;100.00;100342.28;5011072;28;20494;-77
2024/03/19 05:30:36;;;;;;;0.30;0.30;;;;;;;3.19;100.00;100388.66;5006852;28;20564;-78
2024/03/19 05:33:04;;;;;;;0.30;0.30;;;;;;;3.07;100.00;100339.06;5009627;28;20159;-77
2024/03/19 05:35:29;;;;;;;0.30;0.30;;;;;;;3.08;100.00;100395.25;5007239;28;20034;-77
2024/03/19 05:37:57;;;;;;;6.72;3.35;;;;;;;3.11;100.00;100383.28;5005681;28;20402;-79
2024/03/19 05:40:22;;;;;;;0.30;0.30;;;;;;;2.99;100.00;100354.38;5008415;28;20060;-79
2024/03/19 05:42:48;;;;;;;0.35;0.35;;;;;;;3.13;100.00;100355.66;5004218;28;20062;-79
2024/03/19 05:45:14;;;;;;;0.52;0.52;;;;;;;3.40;100.00;100398.78;5008355;28;20616;-79
2024/03/19 05:47:42;;;;;;;0.25;0.25;;;;;;;2.92;100.00;100410.31;5011112;28;20060;-80
2024/03/19 05:50:08;;;;;;;0.50;0.50;;;;;;;2.84;100.00;100414.41;5027746;28;20080;-80
2024/03/19 05:52:35;;;;;;;0.30;0.30;;;;;;;2.41;100.00;100365.53;5011781;28;20496;-79
2024/03/19 05:55:01;;;;;;;0.50;0.50;;;;;;;2.65;100.00;100425.91;5005233;28;20052;-77
2024/03/19 05:57:26;;;;;;;2.15;2.05;;;;;;;2.55;100.00;100434.19;5024275;28;20042;-77
2024/03/19 05:59:52;;;;;;;0.35;0.35;;;;;;;2.57;100.00;100423.88;5004210;28;20133;-78
2024/03/19 06:02:18;;;;;;;0.40;0.40;;;;;;;2.71;100.00;100444.22;5006974;28;20049;-79
2024/03/19 06:04:43;;;;;;;0.30;0.30;;;;;;;2.38;100.00;100388.75;5019780;28;20430;-77
2024/03/19 06:07:09;;;;;;;0.20;0.20;;;;;;;2.48;100.00;100448.66;5005073;28;20046;-77
2024/03/19 06:09:43;;;;;;;0.30;0.30;;;;;;;2.31;100.00;100405.78;5012261;28;20448;-79
2024/03/19 06:12:11;;;;;;;0.30;0.30;;;;;;;2.56;100.00;100453.22;5010548;28;20052;-79
2024/03/19 06:14:37;;;;;;;0.47;0.47;;;;;;;2.17;100.00;100431.19;5000701;28;20053;-79
2024/03/19 06:17:03;;;;;;;0.38;0.38;;;;;;;2.62;100.00;100464.66;5009239;28;20038;-79
2024/03/19 06:19:29;;;;;;;0.65;0.65;;;;;;;2.32;100.00;100441.22;5003056;28;20478;-78
2024/03/19 06:21:54;;;;;;;0.38;0.38;;;;;;;2.21;100.00;100434.78;5008283;28;20581;-79
2024/03/19 06:24:20;;;;;;;1.30;1.20;;;;;;;2.35;100.00;100471.50;5026743;28;20074;-79
2024/03/19 06:26:45;;;;;;;13.98;12.90;;;;;;;2.15;100.00;100425.09;5012751;28;20042;-79
2024/03/19 06:29:11;;;;;;;0.30;0.30;;;;;;;2.30;100.00;100441.16;5000464;28;20548;-78
2024/03/19 06:31:37;;;;;;;0.38;0.38;;;;;;;2.43;100.00;100494.22;5019591;28;20030;-79
2024/03/19 06:34:04;;;;;;;0.45;0.45;;;;;;;2.23;100.00;100466.78;5005175;28;20054;-78
2024/03/19 06:36:30;;;;;;;3.83;3.53;;;;;;;2.47;100.00;100501.28;5006825;28;20216;-77
2024/03/19 06:38:56;;;;;;;0.30;0.30;;;;;;;2.50;100.00;100505.66;5005651;28;20683;-78
2024/03/19 06:41:22;;;;;;;0.20;0.20;;;;;;;2.52;100.00;100504.88;5020397;28;20041;-76
2024/03/19 06:43:48;;;;;;;0.60;0.60;;;;;;;2.61;100.00;100493.97;5008773;28;20439;-78
2024/03/19 06:46:13;;;;;;;0.40;0.40;;;;;;;2.50;100.00;100497.91;5006955;28;20033;-77
2024/03/19 06:48:40;;;;;;;0.30;0.30;;;;;;;2.36;100.00;100468.94;5006280;28;20045;-77
2024/03/19 06:51:05;;;;;;;0.60;0.60;;;;;;;2.35;100.00;100466.31;5006578;28;20042;-78
2024/03/19 06:53:31;;;;;;;0.30;0.30;;;;;;;2.94;100.00;100488.13;5011323;28;20491;-78
2024/03/19 06:55:57;;;;;;;0.30;0.30;;;;;;;2.35;100.00;100474.09;5006167;28;20026;-79
2024/03/19 06:58:22;;;;;;;0.30;0.30;;;;;;;2.86;100.00;100505.16;5005787;28;20486;-79
2024/03/19 07:00:51;;;;;;;2.17;2.05;;;;;;;2.85;100.00;100505.97;5004554;28;20046;-76
2024/03/19 07:03:18;;;;;;;1.42;1.42;;;;;;;2.66;100.00;100504.47;5001363;28;20062;-79
2024/03/19 07:05:45;;;;;;;0.40;0.40;;;;;;;3.02;100.00;100503.91;5005572;28;20426;-77
2024/03/19 07:08:12;;;;;;;0.80;0.80;;;;;;;2.79;100.00;100511.84;5004803;28;20073;-77
2024/03/19 07:10:38;;;;;;;0.65;0.65;;;;;;;2.43;100.00;100489.03;5004381;28;20018;-77
2024/03/19 07:13:04;;;;;;;0.30;0.30;;;;;;;2.65;100.00;100531.22;5009689;28;20163;-76
2024/03/19 07:15:30;;;;;;;0.28;0.28;;;;;;;2.37;100.00;100509.56;5005950;28;20050;-77
2024/03/19 07:17:56;;;;;;;0.40;0.40;;;;;;;2.41;100.00;100541.59;5005234;28;20770;-78
2024/03/19 07:20:23;;;;;;;0.20;0.20;;;;;;;2.43;100.00;100540.84;5005485;28;20050;-78
2024/03/19 07:22:49;;;;;;;0.30;0.30;;;;;;;1.97;100.00;100507.28;5005673;28;20113;-77
2024/03/19 07:25:15;;;;;;;1.20;1.20;;;;;;;2.19;100.00;100553.78;5009886;28;20037;-78
2024/03/19 07:27:42;;;;;;;1.17;0.40;;;;;;;2.13;100.00;100512.19;5005597;28;20568;-76
2024/03/19 07:30:11;;;;;;;0.40;0.40;;;;;;;2.11;100.00;100516.41;5004089;28;20045;-77
2024/03/19 07:32:39;;;;;;;0.25;0.25;;;;;;;2.21;100.00;100515.03;4992214;28;20167;-75
2024/03/19 07:35:07;;;;;;;0.30;0.30;;;;;;;2.31;100.00;100546.47;5003363;28;20030;-78
2024/03/19 07:37:34;;;;;;;0.30;0.30;;;;;;;2.04;100.00;100498.91;5005810;28;20034;-77
2024/03/19 07:40:00;;;;;;;0.50;0.50;;;;;;;2.13;100.00;100514.78;5001670;28;20523;-77
2024/03/19 07:42:25;;;;;;;2.28;2.17;;;;;;;2.39;100.00;100575.25;5006275;28;20049;-79
2024/03/19 07:44:51;;;;;;;0.60;0.60;;;;;;;2.49;100.00;100573.84;5018557;28;20041;-77
2024/03/19 07:47:18;;;;;;;0.20;0.20;;;;;;;2.19;100.00;100539.97;5020624;28;20537;-76
2024/03/19 07:49:47;;;;;;;0.35;0.35;;;;;;;2.32;100.00;100539.59;5007367;28;20401;-76
2024/03/19 07:52:16;;;;;;;0.88;0.88;;;;;;;2.43;100.00;100590.03;5020616;28;20054;-79
2024/03/19 07:54:42;;;;;;;0.20;0.20;;;;;;;2.33;100.00;100582.78;5002727;28;20061;-78
2024/03/19 07:57:08;;;;;;;0.30;0.30;;;;;;;2.30;100.00;100595.63;5001113;28;20050;-77
2024/03/19 07:59:34;;;;;;;0.40;0.40;;;;;;;2.29;100.00;100586.97;5003896;28;20045;-79
2024/03/19 08:02:00;;;;;;;0.22;0.22;;;;;;;2.15;100.00;100553.63;5008339;28;20065;-77
2024/03/19 08:04:28;;;;;;;0.65;0.65;;;;;;;2.27;100.00;100582.53;5029933;28;20099;-77
2024/03/19 08:06:54;;;;;;;0.30;0.30;;;;;;;1.93;100.00;100568.38;5007015;28;20050;-77
2024/03/19 08:09:19;;;;;;;0.30;0.30;;;;;;;2.29;100.00;100586.06;5005183;28;20217;-76
2024/03/19 08:11:45;;;;;;;0.38;0.38;;;;;;;2.14;100.00;100575.19;5004218;28;20557;-76
2024/03/19 08:14:10;;;;;;;0.40;0.40;;;;;;;2.13;100.00;100594.09;5011390;28;20041;-77
2024/03/19 08:16:37;;;;;;;0.30;0.30;;;;;;;2.29;100.00;100612.88;5030105;28;20563;-75
2024/03/19 08:19:02;;;;;;;0.30;0.30;;;;;;;1.86;100.00;100576.72;5031892;28;20046;-77
2024/03/19 08:21:28;;;;;;;0.43;0.43;;;;;;;2.06;100.00;100578.38;5025626;28;20057;-75
2024/03/19 08:23:54;;;;;;;0.30;0.30;;;;;;;1.95;100.00;100566.72;5020194;28;20136;-74
2024/03/19 08:26:20;;;;;;;0.30;0.30;;;;;;;2.14;100.00;100609.69;5011951;28;20076;-78
2024/03/19 08:28:46;;;;;;;3.20;3.10;;;;;;;1.82;100.00;100586.06;5027718;28;20063;-76
2024/03/19 08:31:12;;;;;;;0.40;0.40;;;;;;;2.28;100.00;100634.38;5008376;28;20502;-76
2024/03/19 08:33:39;;;;;;;2.47;0.50;;;;;;;1.87;100.00;100606.94;5008274;28;20160;-78
2024/03/19 08:36:05;;;;;;;3.67;3.47;;;;;;;2.33;100.00;100635.44;5013841;28;20048;-76
2024/03/19 08:38:34;;;;;;;0.40;0.40;;;;;;;2.51;100.00;100626.59;5015858;28;20051;-76
2024/03/19 08:41:01;;;;;;;2.53;2.42;;;;;;;2.42;100.00;100645.25;5011895;28;20042;-77
2024/03/19 08:43:27;;;;;;;1.65;1.55;;;;;;;2.39;100.00;100618.34;5006957;28;20062;-76
2024/03/19 08:45:53;;;;;;;0.75;0.75;;;;;;;2.67;100.00;100648.72;5008593;28;20073;-77
2024/03/19 08:48:19;;;;;;;1.20;1.20;;;;;;;2.49;100.00;100633.41;5002492;28;20394;-77
2024/03/19 08:50:45;;;;;;;1.52;1.33;;;;;;;1.79;100.00;100604.06;5003135;28;20050;-76
2024/03/19 08:53:11;;;;;;;0.50;0.50;;;;;;;2.37;100.00;100620.03;5009694;28;20164;-76
2024/03/19 08:55:37;;;;;;;0.50;0.50;;;;;;;2.61;100.00;100607.94;5009398;28;20038;-77
2024/03/19 08:58:07;;;;;;;0.30;0.30;;;;;;;2.68;100.00;100637.53;5026966;28;20414;-76
2024/03/19 09:00:33;;;;;;;5.07;4.88;;;;;;;2.61;100.00;100620.91;5005938;28;20046;-77
2024/03/19 09:02:58;;;;;;;0.30;0.30;;;;;;;2.28;100.00;100631.78;5016603;28;20057;-76
2024/03/19 09:05:25;;;;;;;0.30;0.30;;;;;;;2.58;100.00;100643.22;5021901;28;20046;-76
2024/03/19 09:07:51;;;;;;;28.27;26.00;;;;;;;2.74;100.00;100609.28;5022556;28;20045;-78
2024/03/19 09:10:17;;;;;;;0.45;0.45;;;;;;;2.67;100.00;100647.03;5019352;28;20673;-77
2024/03/19 09:12:45;;;;;;;0.55;0.55;;;;;;;2.39;100.00;100603.72;5011144;28;20053;-78
2024/03/19 09:15:14;;;;;;;1.30;1.27;;;;;;;2.59;100.00;100600.94;5013331;28;20041;-78
2024/03/19 09:17:41;;;;;;;0.50;0.50;;;;;;;2.79;100.00;100635.34;5022803;28;20041;-75
2024/03/19 09:20:07;;;;;;;0.20;0.20;;;;;;;2.66;100.00;100634.88;5026476;28;20160;-76
2024/03/19 09:22:34;;;;;;;0.60;0.60;;;;;;;2.74;100.00;100610.16;5026111;28;20061;-76
2024/03/19 09:25:03;;;;;;;4.82;3.00;;;;;;;2.51;100.00;100598.09;5035903;28;20092;-77
2024/03/19 09:27:33;;;;;;;0.40;0.40;;;;;;;3.03;100.00;100586.91;5023945;28;20042;-77
2024/03/19 09:29:59;;;;;;;0.30;0.30;;;;;;;3.01;100.00;100582.50;5017833;28;20500;-77
2024/03/19 09:32:25;;;;;;;0.30;0.30;;;;;;;3.38;100.00;100620.91;5022524;28;20558;-76
2024/03/19 09:34:51;;;;;;;0.32;0.32;;;;;;;4.11;100.00;100624.00;5029098;28;20116;-78
2024/03/19 09:37:16;;;;;;;0.50;0.50;;;;;;;4.00;100.00;100616.78;5027353;28;20039;-78
2024/03/19 09:39:42;;;;;;;0.30;0.30;;;;;;;3.81;100.00;100617.06;5024513;28;20135;-77
2024/03/19 09:42:22;;;;;;;1.13;1.13;;;;;;;3.59;100.00;100594.75;5024555;28;20054;-76
2024/03/19 09:59:33;;;;;;;2.10;1.90;;;;;;;;;;5042289;27;20655;-74
2024/03/19 10:02:00;;;;;;;0.30;0.30;;;;;;;;;;5021039;28;20080;-74
2024/03/19 10:04:26;;;;;;;0.63;0.63;;;;;;;;;;5025665;28;20030;-74
2024/03/19 10:06:51;;;;;;;0.40;0.40;;;;;;;;;;5020555;28;20519;-73
2024/03/19 10:09:17;;;;;;;0.40;0.40;;;;;;;;;;5022658;28;20445;-74
2024/03/19 10:11:43;;;;;;;0.52;0.52;;;;;;;;;;5025336;28;20041;-75
2024/03/19 10:14:09;;;;;;;0.55;0.55;;;;;;;;;;5022575;28;20077;-77
2024/03/19 10:16:38;;;;;;;0.77;0.77;;;;;;;;;;5015581;28;20695;-75
2024/03/19 10:19:04;;;;;;;0.40;0.40;;;;;;;;;;5053463;28;20047;-75
2024/03/19 10:21:29;;;;;;;0.40;0.40;;;;;;;;;;5022818;28;20037;-75
2024/03/19 10:23:55;;;;;;;0.63;0.63;;;;;;;;;;5021233;28;20540;-75
2024/03/19 10:26:21;;;;;;;0.40;0.40;;;;;;;;;;5022305;28;20720;-76
2024/03/19 10:28:47;;;;;;;0.30;0.30;;;;;;;;;;5022143;28;20054;-75
2024/03/19 10:31:12;;;;;;;0.63;0.63;;;;;;;;;;5024410;28;20024;-73
2024/03/19 10:33:38;;;;;;;0.70;0.70;;;;;;;;;;5026041;28;20045;-74
2024/03/19 10:36:04;;;;;;;0.40;0.40;;;;;;;;;;5022590;28;20515;-76
2024/03/19 10:38:30;;;;;;;0.40;0.40;;;;;;;;;;5020823;28;20030;-75
2024/03/19 10:40:56;;;;;;;0.47;0.47;;;;;;;;;;5024551;28;20912;-75
2024/03/19 10:43:22;;;;;;;0.40;0.40;;;;;;;;;;5025505;28;20052;-75
2024/03/19 10:45:49;;;;;;;0.30;0.30;;;;;;;;;;5022038;28;20068;-76
2024/03/19 10:48:15;;;;;;;1.05;1.05;;;;;;;;;;5021777;28;20057;-76
2024/03/19 10:50:42;;;;;;;0.60;0.60;;;;;;;;;;5018138;28;20050;-76
2024/03/19 10:53:09;;;;;;;1.95;0.88;;;;;;;;;;5026278;28;20125;-75
2024/03/19 10:55:35;;;;;;;0.40;0.40;;;;;;;;;;5021759;28;20438;-75
2024/03/19 10:58:01;;;;;;;3.42;3.13;;;;;;;;;;5021210;28;20056;-77
2024/03/19 11:00:27;;;;;;;1.30;1.05;;;;;;;;;;5009415;28;20042;-77
2024/03/19 11:02:57;;;;;;;0.40;0.40;;;;;;;;;;5011121;28;20033;-77
2024/03/19 11:05:22;;;;;;;0.52;0.52;;;;;;;;;;5008732;28;20041;-77
2024/03/19 11:07:49;;;;;;;1.33;1.23;;;;;;;;;;5006549;28;20413;-76
2024/03/19 11:10:37;;;;;;;2.42;2.33;;;;;;;;;;5007812;28;20108;-74
2024/03/19 11:13:06;;;;;;;0.30;0.30;;;;;;;;;;5009468;28;20485;-76
2024/03/19 11:15:32;;;;;;;0.40;0.40;;;;;;;;;;5002106;28;20045;-77
2024/03/19 11:17:58;;;;;;;0.25;0.25;;;;;;;;;;5011609;28;20417;-78
2024/03/19 11:20:32;;;;;;;0.68;0.68;;;;;;;;;;5007536;28;20038;-76
2024/03/19 11:22:59;;;;;;;0.30;0.30;;;;;;;;;;5008041;28;20095;-77
2024/03/19 11:25:25;;;;;;;0.60;0.60;;;;;;;;;;5008390;28;20065;-74
2024/03/19 11:27:51;;;;;;;0.30;0.30;;;;;;;;;;5008136;28;20040;-74
2024/03/19 11:30:19;;;;;;;0.60;0.50;;;;;;;;;;5012126;28;20137;-75
2024/03/19 11:32:47;;;;;;;0.60;0.60;;;;;;;;;;5009991;28;20509;-76
2024/03/19 11:35:22;;;;;;;0.30;0.30;;;;;;;;;;5007730;28;20038;-76
2024/03/19 11:37:51;;;;;;;0.30;0.30;;;;;;;;;;5008936;28;20105;-78
2024/03/19 11:40:23;;;;;;;0.40;0.40;;;;;;;;;;5015141;28;20084;-77
2024/03/19 11:42:49;;;;;;;5.13;4.75;;;;;;;;;;5012983;28;20555;-78
2024/03/19 11:45:15;;;;;;;3.03;2.58;;;;;;;;;;5007273;28;20130;-77
2024/03/19 11:47:41;;;;;;;0.40;0.40;;;;;;;;;;5004885;28;20069;-76
2024/03/19 11:50:13;;;;;;;1.88;1.10;;;;;;;;;;5003935;28;20919;-76
2024/03/19 11:52:39;;;;;;;4.45;4.25;;;;;;;;;;5004967;28;20492;-76
2024/03/19 11:55:05;;;;;;;1.80;1.70;;;;;;;;;;5006940;28;20026;-76
2024/03/19 11:57:31;;;;;;;0.65;0.40;;;;;;;;;;5010316;28;20053;-75
2024/03/19 11:59:56;;;;;;;4.57;4.22;;;;;;;;;;5004009;28;20080;-74
2024/03/19 12:02:22;;;;;;;1.45;1.38;;;;;;;;;;5009162;28;20038;-74
2024/03/19 12:04:47;;;;;;;0.70;0.70;;;;;;;;;;5007056;28;20034;-77